Time;durP1;ratioP1;P1;durP2;ratioP2;P2;SDS_P1;SDS_P2;PMS_P1;PMS_P2;Temp;Humidity;BMP_temperature;BMP_pressure;BME280_temperature;BME280_humidity;BME280_pressure;Samples;Min_cycle;Max_cycle;Signal;HPM_P1;HPM_P2
2021/07/18 00:00:13;;;;;;;;;;;;;;;;;;1038403;28;19909;-84
2021/07/18 00:00:44;;;;;;;;;;;;;;;;;;1038446;28;19909;-84
2021/07/18 00:01:14;;;;;;;;;;;;;;;;;;1038305;28;20259;-84
2021/07/18 00:01:47;;;;;;;;;;;;;;;;;;1034637;28;20275;-86
2021/07/18 00:02:17;;;;;;;;;;;;;;;;;;1030081;28;19972;-84
2021/07/18 00:02:48;;;;;;;;;;;;;;;;;;1026221;29;19999;-84
2021/07/18 00:03:18;;;;;;;;;;;;;;;;;;1026470;28;19918;-82
2021/07/18 00:03:48;;;;;;;;;;;;;;;;;;1030333;28;19914;-85
2021/07/18 00:04:18;;;;;;;;;;;;;;;;;;1030094;28;20415;-86
2021/07/18 00:04:50;;;;;;;;;;;;;;;;;;1034493;28;19910;-84
2021/07/18 00:05:20;;;;;;;;;;;;;;;;;;1034075;28;20252;-86
2021/07/18 00:05:50;;;;;;;;;;;;;;;;;;1034682;28;19917;-86
2021/07/18 00:06:20;;;;;;;;;;;;;;;;;;1030804;28;19906;-86
2021/07/18 00:06:51;;;;;;;;;;;;;;;;;;1035116;28;19914;-85
2021/07/18 00:07:21;;;;;;;;;;;;;;;;;;1036233;28;19989;-84
2021/07/18 00:07:51;;;;;;;;;;;;;;;;;;1036492;28;20462;-83
2021/07/18 00:08:21;;;;;;;;;;;;;;;;;;1036023;28;20064;-85
2021/07/18 00:08:52;;;;;;;;;;;;;;;;;;1027432;28;19911;-84
2021/07/18 00:09:22;;;;;;;;;;;;;;;;;;1026173;29;19910;-83
2021/07/18 00:09:52;;;;;;;;;;;;;;;;;;1026026;29;19962;-85
2021/07/18 00:10:27;;;;;;;;;;;;;;;;;;1029829;28;19960;-85
2021/07/18 00:10:57;;;;;;;;;;;;;;;;;;1039602;28;19906;-84
2021/07/18 00:11:27;;;;;;;;;;;;;;;;;;1042583;28;19898;-88
2021/07/18 00:11:57;;;;;;;;;;;;;;;;;;1045682;28;19902;-90
2021/07/18 00:12:28;;;;;;;;;;;;;;;;;;1042204;28;19902;-84
2021/07/18 00:12:58;;;;;;;;;;;;;;;;;;1040454;28;19997;-82
2021/07/18 00:13:28;;;;;;;;;;;;;;;;;;1042254;28;19916;-83
2021/07/18 00:13:58;;;;;;;;;;;;;;;;;;1038105;28;19910;-82
2021/07/18 00:14:29;;;;;;;;;;;;;;;;;;1033924;28;19932;-84
2021/07/18 00:14:59;;;;;;;;;;;;;;;;;;1034192;28;19996;-84
2021/07/18 00:15:29;;;;;;;;;;;;;;;;;;1038273;28;19914;-84
2021/07/18 00:15:59;;;;;;;;;;;;;;;;;;1038087;28;20359;-84
2021/07/18 00:16:31;;;;;;;;;;;;;;;;;;1042404;28;19909;-83
2021/07/18 00:17:02;;;;;;;;;;;;;;;;;;1046593;28;19905;-82
2021/07/18 00:17:37;;;;;;;;;;;;;;;;;;1042242;28;19941;-84
2021/07/18 00:18:08;;;;;;;;;;;;;;;;;;1042336;28;19909;-85
2021/07/18 00:18:38;;;;;;;;;;;;;;;;;;1042620;28;19947;-83
2021/07/18 00:19:09;;;;;;;;;;;;;;;;;;1043328;28;19905;-83
2021/07/18 00:19:39;;;;;;;;;;;;;;;;;;1038310;28;19981;-84
2021/07/18 00:20:09;;;;;;;;;;;;;;;;;;1030650;28;19910;-85
2021/07/18 00:20:39;;;;;;;;;;;;;;;;;;1030269;28;19960;-84
2021/07/18 00:21:10;;;;;;;;;;;;;;;;;;1034439;28;19909;-84
2021/07/18 00:21:40;;;;;;;;;;;;;;;;;;1038736;28;19910;-85
2021/07/18 00:22:10;;;;;;;;;;;;;;;;;;1038841;28;19913;-83
2021/07/18 00:22:41;;;;;;;;;;;;;;;;;;1038505;28;19963;-84
2021/07/18 00:23:11;;;;;;;;;;;;;;;;;;1034468;28;19997;-84
2021/07/18 00:23:41;;;;;;;;;;;;;;;;;;1029893;28;20323;-86
2021/07/18 00:24:11;;;;;;;;;;;;;;;;;;1030502;28;19916;-85
2021/07/18 00:24:42;;;;;;;;;;;;;;;;;;1035094;28;20004;-84
2021/07/18 00:25:12;;;;;;;;;;;;;;;;;;1040783;28;19909;-84
2021/07/18 00:25:42;;;;;;;;;;;;;;;;;;1045128;28;19989;-83
2021/07/18 00:26:12;;;;;;;;;;;;;;;;;;1043027;28;20422;-83
2021/07/18 00:26:43;;;;;;;;;;;;;;;;;;1037687;28;19996;-81
2021/07/18 00:27:13;;;;;;;;;;;;;;;;;;1033612;28;19909;-81
2021/07/18 00:27:43;;;;;;;;;;;;;;;;;;1033820;28;19909;-82
2021/07/18 00:28:13;;;;;;;;;;;;;;;;;;1033512;28;19992;-81
2021/07/18 00:28:44;;;;;;;;;;;;;;;;;;1037638;28;20011;-84
2021/07/18 00:29:14;;;;;;;;;;;;;;;;;;1041814;28;19960;-85
2021/07/18 00:29:45;;;;;;;;;;;;;;;;;;1033443;28;19942;-83
2021/07/18 00:30:15;;;;;;;;;;;;;;;;;;1033743;28;19914;-81
2021/07/18 00:30:45;;;;;;;;;;;;;;;;;;1034254;28;19910;-82
2021/07/18 00:31:16;;;;;;;;;;;;;;;;;;1033879;28;19925;-81
2021/07/18 00:31:46;;;;;;;;;;;;;;;;;;1041727;28;19909;-83
2021/07/18 00:32:16;;;;;;;;;;;;;;;;;;1037490;28;19910;-82
2021/07/18 00:32:47;;;;;;;;;;;;;;;;;;1034225;28;19917;-83
2021/07/18 00:33:17;;;;;;;;;;;;;;;;;;1034036;28;20303;-83
2021/07/18 00:33:47;;;;;;;;;;;;;;;;;;1033991;28;19917;-83
2021/07/18 00:34:17;;;;;;;;;;;;;;;;;;1042283;28;19954;-82
2021/07/18 00:34:48;;;;;;;;;;;;;;;;;;1038125;28;19909;-82
2021/07/18 00:35:18;;;;;;;;;;;;;;;;;;1033577;28;19978;-82
2021/07/18 00:35:48;;;;;;;;;;;;;;;;;;1029958;28;19909;-83
2021/07/18 00:36:19;;;;;;;;;;;;;;;;;;1030064;28;20008;-83
2021/07/18 00:36:50;;;;;;;;;;;;;;;;;;1034342;28;19910;-83
2021/07/18 00:37:20;;;;;;;;;;;;;;;;;;1034157;28;20353;-82
2021/07/18 00:37:50;;;;;;;;;;;;;;;;;;1034298;28;19910;-83
2021/07/18 00:38:20;;;;;;;;;;;;;;;;;;1033746;28;19910;-82
2021/07/18 00:38:51;;;;;;;;;;;;;;;;;;1033819;28;19914;-82
2021/07/18 00:39:21;;;;;;;;;;;;;;;;;;1038185;28;19909;-82
2021/07/18 00:39:51;;;;;;;;;;;;;;;;;;1034406;28;20008;-82
2021/07/18 00:40:21;;;;;;;;;;;;;;;;;;1030197;28;19933;-84
2021/07/18 00:40:52;;;;;;;;;;;;;;;;;;1034170;28;19909;-83
2021/07/18 00:41:22;;;;;;;;;;;;;;;;;;1038155;28;20441;-83
2021/07/18 00:41:53;;;;;;;;;;;;;;;;;;1042140;28;19939;-84
2021/07/18 00:42:23;;;;;;;;;;;;;;;;;;1038475;28;19988;-82
2021/07/18 00:42:53;;;;;;;;;;;;;;;;;;1034091;28;20376;-84
2021/07/18 00:43:23;;;;;;;;;;;;;;;;;;1039160;28;19924;-83
2021/07/18 00:43:54;;;;;;;;;;;;;;;;;;1036565;28;20032;-84
2021/07/18 00:44:24;;;;;;;;;;;;;;;;;;1040190;28;19985;-83
2021/07/18 00:44:54;;;;;;;;;;;;;;;;;;1036246;28;19910;-85
2021/07/18 00:45:25;;;;;;;;;;;;;;;;;;1036828;28;19933;-82
2021/07/18 00:45:55;;;;;;;;;;;;;;;;;;1041059;28;19914;-84
2021/07/18 00:46:25;;;;;;;;;;;;;;;;;;1035844;28;19902;-83
2021/07/18 00:46:55;;;;;;;;;;;;;;;;;;1039570;28;19913;-85
2021/07/18 00:47:26;;;;;;;;;;;;;;;;;;1039228;28;19909;-84
2021/07/18 00:47:56;;;;;;;;;;;;;;;;;;1035946;28;19970;-82
2021/07/18 00:48:26;;;;;;;;;;;;;;;;;;1043469;28;19932;-85
2021/07/18 00:48:56;;;;;;;;;;;;;;;;;;1035248;28;19945;-84
2021/07/18 00:49:26;;;;;;;;;;;;;;;;;;1038698;28;19906;-83
2021/07/18 00:49:57;;;;;;;;;;;;;;;;;;1043167;28;19908;-84
2021/07/18 00:50:27;;;;;;;;;;;;;;;;;;1034695;28;19934;-84
2021/07/18 00:50:57;;;;;;;;;;;;;;;;;;1038918;28;19916;-83
2021/07/18 00:51:27;;;;;;;;;;;;;;;;;;1038704;28;19992;-82
2021/07/18 00:51:58;;;;;;;;;;;;;;;;;;1034657;28;19967;-83
2021/07/18 00:52:28;;;;;;;;;;;;;;;;;;1034663;28;19941;-83
2021/07/18 00:52:58;;;;;;;;;;;;;;;;;;1038642;28;19905;-83
2021/07/18 00:53:30;;;;;;;;;;;;;;;;;;1038460;28;19905;-84
2021/07/18 00:54:00;;;;;;;;;;;;;;;;;;1042749;28;19928;-81
2021/07/18 00:54:30;;;;;;;;;;;;;;;;;;1046770;28;19947;-82
2021/07/18 00:55:01;;;;;;;;;;;;;;;;;;1046802;28;20363;-83
2021/07/18 00:55:31;;;;;;;;;;;;;;;;;;1042545;28;19905;-83
2021/07/18 00:56:01;;;;;;;;;;;;;;;;;;1042631;28;20282;-82
2021/07/18 00:56:31;;;;;;;;;;;;;;;;;;1042459;28;19906;-83
2021/07/18 00:57:01;;;;;;;;;;;;;;;;;;1042583;28;19969;-83
2021/07/18 00:57:32;;;;;;;;;;;;;;;;;;1038391;28;20340;-82
2021/07/18 00:58:03;;;;;;;;;;;;;;;;;;1038245;28;19913;-83
2021/07/18 00:58:34;;;;;;;;;;;;;;;;;;1038491;28;19905;-84
2021/07/18 00:59:04;;;;;;;;;;;;;;;;;;1038257;28;20451;-82
2021/07/18 00:59:34;;;;;;;;;;;;;;;;;;1042363;28;19905;-83
2021/07/18 01:00:04;;;;;;;;;;;;;;;;;;1038098;28;19973;-84
2021/07/18 01:00:35;;;;;;;;;;;;;;;;;;1038455;28;19916;-84
2021/07/18 01:01:05;;;;;;;;;;;;;;;;;;1038382;28;19906;-81
2021/07/18 01:01:35;;;;;;;;;;;;;;;;;;1038135;28;20398;-82
2021/07/18 01:02:05;;;;;;;;;;;;;;;;;;1038029;28;19988;-85
2021/07/18 01:02:36;;;;;;;;;;;;;;;;;;1038309;28;19945;-84
2021/07/18 01:03:07;;;;;;;;;;;;;;;;;;1034176;28;20423;-81
2021/07/18 01:03:37;;;;;;;;;;;;;;;;;;1038571;28;19932;-82
2021/07/18 01:04:07;;;;;;;;;;;;;;;;;;1034146;28;20398;-84
2021/07/18 01:04:38;;;;;;;;;;;;;;;;;;1034206;28;19910;-83
2021/07/18 01:05:08;;;;;;;;;;;;;;;;;;1038236;28;19910;-84
2021/07/18 01:05:39;;;;;;;;;;;;;;;;;;1038123;28;19920;-83
2021/07/18 01:06:09;;;;;;;;;;;;;;;;;;1038123;28;19980;-84
2021/07/18 01:06:39;;;;;;;;;;;;;;;;;;1042341;28;19912;-83
2021/07/18 01:07:10;;;;;;;;;;;;;;;;;;1042428;28;19959;-83
2021/07/18 01:07:40;;;;;;;;;;;;;;;;;;1037897;28;19928;-82
2021/07/18 01:08:11;;;;;;;;;;;;;;;;;;1029901;28;19971;-85
2021/07/18 01:08:41;;;;;;;;;;;;;;;;;;1030079;28;20296;-84
2021/07/18 01:09:11;;;;;;;;;;;;;;;;;;1033996;28;19955;-82
2021/07/18 01:09:41;;;;;;;;;;;;;;;;;;1033909;28;20000;-82
2021/07/18 01:10:12;;;;;;;;;;;;;;;;;;1033954;28;19906;-83
2021/07/18 01:10:42;;;;;;;;;;;;;;;;;;1037882;28;19910;-84
2021/07/18 01:11:12;;;;;;;;;;;;;;;;;;1042460;28;19908;-83
2021/07/18 01:11:42;;;;;;;;;;;;;;;;;;1042173;28;19912;-84
2021/07/18 01:12:14;;;;;;;;;;;;;;;;;;1042424;28;19992;-84
2021/07/18 01:12:45;;;;;;;;;;;;;;;;;;1045995;28;19964;-82
2021/07/18 01:13:15;;;;;;;;;;;;;;;;;;1042158;28;20395;-83
2021/07/18 01:13:45;;;;;;;;;;;;;;;;;;1046323;28;19912;-84
2021/07/18 01:14:15;;;;;;;;;;;;;;;;;;1042405;28;19909;-83
2021/07/18 01:14:46;;;;;;;;;;;;;;;;;;1034076;28;19929;-83
2021/07/18 01:15:16;;;;;;;;;;;;;;;;;;1038161;28;19924;-85
2021/07/18 01:15:46;;;;;;;;;;;;;;;;;;1034041;28;20316;-85
2021/07/18 01:16:17;;;;;;;;;;;;;;;;;;1038090;28;20040;-83
2021/07/18 01:16:47;;;;;;;;;;;;;;;;;;1037903;28;19905;-84
2021/07/18 01:17:17;;;;;;;;;;;;;;;;;;1030184;28;19909;-83
2021/07/18 01:17:47;;;;;;;;;;;;;;;;;;1034294;28;19906;-83
2021/07/18 01:18:18;;;;;;;;;;;;;;;;;;1033710;28;19913;-84
2021/07/18 01:18:48;;;;;;;;;;;;;;;;;;1034110;28;19906;-84
2021/07/18 01:19:18;;;;;;;;;;;;;;;;;;1033962;28;20461;-82
2021/07/18 01:19:48;;;;;;;;;;;;;;;;;;1033955;28;20016;-82
2021/07/18 01:20:19;;;;;;;;;;;;;;;;;;1033632;28;19949;-83
2021/07/18 01:20:49;;;;;;;;;;;;;;;;;;1037926;28;19909;-82
2021/07/18 01:21:19;;;;;;;;;;;;;;;;;;1030077;28;19968;-83
2021/07/18 01:21:49;;;;;;;;;;;;;;;;;;1034039;28;19914;-84
2021/07/18 01:22:20;;;;;;;;;;;;;;;;;;1029661;28;19960;-82
2021/07/18 01:22:50;;;;;;;;;;;;;;;;;;1034165;28;20004;-82
2021/07/18 01:23:20;;;;;;;;;;;;;;;;;;1038196;28;19909;-82
2021/07/18 01:23:50;;;;;;;;;;;;;;;;;;1038785;28;19909;-82
2021/07/18 01:24:21;;;;;;;;;;;;;;;;;;1034861;28;19962;-81
2021/07/18 01:24:51;;;;;;;;;;;;;;;;;;1035274;28;19917;-81
2021/07/18 01:25:22;;;;;;;;;;;;;;;;;;1039466;28;19937;-81
2021/07/18 01:25:55;;;;;;;;;;;;;;;;;;1039226;28;19916;-81
2021/07/18 01:26:25;;;;;;;;;;;;;;;;;;1038932;28;19905;-84
2021/07/18 01:26:56;;;;;;;;;;;;;;;;;;1034550;28;20390;-85
2021/07/18 01:27:26;;;;;;;;;;;;;;;;;;1034414;28;19910;-83
2021/07/18 01:27:56;;;;;;;;;;;;;;;;;;1033902;28;19953;-87
2021/07/18 01:28:27;;;;;;;;;;;;;;;;;;1034200;28;19973;-83
2021/07/18 01:28:57;;;;;;;;;;;;;;;;;;1034214;28;19910;-82
2021/07/18 01:29:27;;;;;;;;;;;;;;;;;;1042860;28;19948;-83
2021/07/18 01:29:57;;;;;;;;;;;;;;;;;;1038292;28;20447;-82
2021/07/18 01:30:28;;;;;;;;;;;;;;;;;;1030028;28;19949;-82
2021/07/18 01:30:58;;;;;;;;;;;;;;;;;;1030202;28;20315;-81
2021/07/18 01:31:28;;;;;;;;;;;;;;;;;;1030136;28;19918;-81
2021/07/18 01:31:58;;;;;;;;;;;;;;;;;;1034352;28;19917;-83
2021/07/18 01:32:29;;;;;;;;;;;;;;;;;;1038225;28;19916;-83
2021/07/18 01:32:59;;;;;;;;;;;;;;;;;;1033950;28;19973;-82
2021/07/18 01:33:29;;;;;;;;;;;;;;;;;;1029786;28;19914;-83
2021/07/18 01:33:59;;;;;;;;;;;;;;;;;;1025998;29;20261;-83
2021/07/18 01:34:30;;;;;;;;;;;;;;;;;;1031690;28;19906;-82
2021/07/18 01:35:00;;;;;;;;;;;;;;;;;;1031727;28;19966;-82
2021/07/18 01:35:30;;;;;;;;;;;;;;;;;;1035843;28;20427;-83
2021/07/18 01:36:00;;;;;;;;;;;;;;;;;;1039366;28;19960;-82
2021/07/18 01:36:31;;;;;;;;;;;;;;;;;;1039192;28;19910;-82
2021/07/18 01:37:01;;;;;;;;;;;;;;;;;;1038718;28;19932;-81
2021/07/18 01:37:31;;;;;;;;;;;;;;;;;;1038998;28;20283;-82
2021/07/18 01:38:01;;;;;;;;;;;;;;;;;;1034115;28;19941;-83
2021/07/18 01:38:32;;;;;;;;;;;;;;;;;;1037983;28;19916;-82
2021/07/18 01:39:02;;;;;;;;;;;;;;;;;;1033899;28;19910;-81
2021/07/18 01:39:32;;;;;;;;;;;;;;;;;;1033890;28;19913;-81
2021/07/18 01:40:02;;;;;;;;;;;;;;;;;;1029531;28;19917;-81
2021/07/18 01:40:33;;;;;;;;;;;;;;;;;;1029325;28;19910;-82
2021/07/18 01:41:03;;;;;;;;;;;;;;;;;;1030121;28;19901;-81
2021/07/18 01:41:33;;;;;;;;;;;;;;;;;;1029178;28;20352;-81
2021/07/18 01:42:03;;;;;;;;;;;;;;;;;;1029192;28;19910;-82
2021/07/18 01:42:34;;;;;;;;;;;;;;;;;;1029415;28;19914;-81
2021/07/18 01:43:04;;;;;;;;;;;;;;;;;;1025427;29;19907;-81
2021/07/18 01:43:34;;;;;;;;;;;;;;;;;;1029508;28;20287;-81
2021/07/18 01:44:04;;;;;;;;;;;;;;;;;;1029258;28;20052;-81
2021/07/18 01:44:35;;;;;;;;;;;;;;;;;;1033274;28;19934;-83
2021/07/18 01:45:05;;;;;;;;;;;;;;;;;;1037216;28;19910;-82
2021/07/18 01:45:35;;;;;;;;;;;;;;;;;;1036927;28;19902;-83
2021/07/18 01:46:05;;;;;;;;;;;;;;;;;;1041344;28;19906;-82
2021/07/18 01:46:36;;;;;;;;;;;;;;;;;;1041528;28;19905;-81
2021/07/18 01:47:06;;;;;;;;;;;;;;;;;;1037462;28;20024;-82
2021/07/18 01:47:36;;;;;;;;;;;;;;;;;;1037357;28;19993;-82
2021/07/18 01:48:07;;;;;;;;;;;;;;;;;;1037166;28;20370;-82
2021/07/18 01:48:37;;;;;;;;;;;;;;;;;;1033611;28;19902;-83
2021/07/18 01:49:07;;;;;;;;;;;;;;;;;;1033229;28;19910;-83
2021/07/18 01:49:38;;;;;;;;;;;;;;;;;;1033235;28;20299;-82
2021/07/18 01:50:08;;;;;;;;;;;;;;;;;;1033305;28;19977;-83
2021/07/18 01:50:38;;;;;;;;;;;;;;;;;;1033275;28;19913;-83
2021/07/18 01:51:08;;;;;;;;;;;;;;;;;;1033462;28;19906;-83
2021/07/18 01:51:39;;;;;;;;;;;;;;;;;;1029346;28;19997;-83
2021/07/18 01:52:09;;;;;;;;;;;;;;;;;;1029291;28;19906;-82
2021/07/18 01:52:39;;;;;;;;;;;;;;;;;;1033163;28;20291;-84
2021/07/18 01:53:09;;;;;;;;;;;;;;;;;;1033254;28;19902;-83
2021/07/18 01:53:40;;;;;;;;;;;;;;;;;;1029551;28;19938;-83
2021/07/18 01:54:10;;;;;;;;;;;;;;;;;;1033446;28;20279;-83
2021/07/18 01:54:40;;;;;;;;;;;;;;;;;;1033744;28;19909;-84
2021/07/18 01:55:10;;;;;;;;;;;;;;;;;;1033402;28;19912;-84
2021/07/18 01:55:41;;;;;;;;;;;;;;;;;;1041587;28;19905;-84
2021/07/18 01:56:11;;;;;;;;;;;;;;;;;;1033381;28;19913;-83
2021/07/18 01:56:41;;;;;;;;;;;;;;;;;;1033590;28;19913;-83
2021/07/18 01:57:11;;;;;;;;;;;;;;;;;;1037507;28;19909;-83
2021/07/18 01:57:42;;;;;;;;;;;;;;;;;;1041631;28;19937;-83
2021/07/18 01:58:12;;;;;;;;;;;;;;;;;;1041433;28;19901;-83
2021/07/18 01:58:42;;;;;;;;;;;;;;;;;;1041715;28;20003;-82
2021/07/18 01:59:14;;;;;;;;;;;;;;;;;;1042971;28;20394;-83
2021/07/18 01:59:44;;;;;;;;;;;;;;;;;;1039044;28;19997;-83
2021/07/18 02:00:14;;;;;;;;;;;;;;;;;;1047996;28;19908;-83
2021/07/18 02:00:45;;;;;;;;;;;;;;;;;;1044519;28;19976;-83
2021/07/18 02:01:15;;;;;;;;;;;;;;;;;;1043404;28;19953;-81
2021/07/18 02:01:45;;;;;;;;;;;;;;;;;;1039338;28;19905;-81
2021/07/18 02:02:16;;;;;;;;;;;;;;;;;;1035297;28;19920;-83
2021/07/18 02:02:46;;;;;;;;;;;;;;;;;;1039055;28;19910;-81
2021/07/18 02:03:17;;;;;;;;;;;;;;;;;;1038794;28;19905;-84
2021/07/18 02:03:47;;;;;;;;;;;;;;;;;;1038211;28;19909;-83
2021/07/18 02:04:17;;;;;;;;;;;;;;;;;;1033540;28;20279;-82
2021/07/18 02:04:47;;;;;;;;;;;;;;;;;;1033805;28;19945;-85
2021/07/18 02:05:18;;;;;;;;;;;;;;;;;;1038853;28;19947;-83
2021/07/18 02:05:48;;;;;;;;;;;;;;;;;;1038511;28;19941;-83
2021/07/18 02:06:21;;;;;;;;;;;;;;;;;;1038008;28;20393;-84
2021/07/18 02:06:51;;;;;;;;;;;;;;;;;;1038760;28;20322;-84
2021/07/18 02:07:21;;;;;;;;;;;;;;;;;;1038236;28;19909;-84
2021/07/18 02:07:52;;;;;;;;;;;;;;;;;;1041882;28;19947;-84
2021/07/18 02:08:22;;;;;;;;;;;;;;;;;;1042103;28;19955;-83
2021/07/18 02:08:52;;;;;;;;;;;;;;;;;;1037962;28;19909;-83
2021/07/18 02:09:23;;;;;;;;;;;;;;;;;;1038026;28;19906;-83
2021/07/18 02:09:53;;;;;;;;;;;;;;;;;;1037934;28;20026;-82
2021/07/18 02:10:23;;;;;;;;;;;;;;;;;;1034472;28;19941;-81
2021/07/18 02:10:53;;;;;;;;;;;;;;;;;;1030843;28;19918;-82
2021/07/18 02:11:24;;;;;;;;;;;;;;;;;;1027024;28;19910;-82
2021/07/18 02:11:54;;;;;;;;;;;;;;;;;;1026764;28;19997;-82
2021/07/18 02:12:24;;;;;;;;;;;;;;;;;;1030408;28;20292;-80
2021/07/18 02:12:54;;;;;;;;;;;;;;;;;;1030673;28;19910;-82
2021/07/18 02:13:25;;;;;;;;;;;;;;;;;;1034919;28;19944;-83
2021/07/18 02:13:55;;;;;;;;;;;;;;;;;;1030697;28;19913;-81
2021/07/18 02:14:25;;;;;;;;;;;;;;;;;;1034776;28;19988;-82
2021/07/18 02:14:55;;;;;;;;;;;;;;;;;;1033667;28;19910;-82
2021/07/18 02:15:26;;;;;;;;;;;;;;;;;;1033528;28;19973;-82
2021/07/18 02:15:56;;;;;;;;;;;;;;;;;;1037908;28;19983;-82
2021/07/18 02:16:26;;;;;;;;;;;;;;;;;;1037549;28;19917;-82
2021/07/18 02:16:56;;;;;;;;;;;;;;;;;;1037545;28;20272;-83
2021/07/18 02:17:27;;;;;;;;;;;;;;;;;;1038004;28;19912;-83
2021/07/18 02:17:57;;;;;;;;;;;;;;;;;;1029326;28;19910;-83
2021/07/18 02:18:27;;;;;;;;;;;;;;;;;;1029768;28;19911;-82
2021/07/18 02:18:57;;;;;;;;;;;;;;;;;;1029450;28;19910;-82
2021/07/18 02:19:28;;;;;;;;;;;;;;;;;;1033912;28;19909;-82
2021/07/18 02:19:58;;;;;;;;;;;;;;;;;;1033725;28;19937;-83
2021/07/18 02:20:28;;;;;;;;;;;;;;;;;;1033478;28;19906;-83
2021/07/18 02:20:59;;;;;;;;;;;;;;;;;;1037686;28;19916;-83
2021/07/18 02:21:29;;;;;;;;;;;;;;;;;;1033627;28;19920;-82
2021/07/18 02:21:59;;;;;;;;;;;;;;;;;;1033753;28;19967;-82
2021/07/18 02:22:29;;;;;;;;;;;;;;;;;;1042181;28;20047;-83
2021/07/18 02:23:00;;;;;;;;;;;;;;;;;;1033997;28;19902;-82
2021/07/18 02:23:30;;;;;;;;;;;;;;;;;;1038903;28;19909;-83
2021/07/18 02:24:00;;;;;;;;;;;;;;;;;;1037795;28;20035;-82
2021/07/18 02:24:30;;;;;;;;;;;;;;;;;;1037777;28;19905;-83
2021/07/18 02:25:01;;;;;;;;;;;;;;;;;;1038106;28;20359;-84
2021/07/18 02:25:31;;;;;;;;;;;;;;;;;;1042207;28;19905;-82
2021/07/18 02:26:01;;;;;;;;;;;;;;;;;;1037660;28;20406;-81
2021/07/18 02:26:31;;;;;;;;;;;;;;;;;;1041583;28;20434;-81
2021/07/18 02:27:02;;;;;;;;;;;;;;;;;;1041717;28;20031;-84
2021/07/18 02:27:32;;;;;;;;;;;;;;;;;;1037764;28;20459;-81
2021/07/18 02:28:02;;;;;;;;;;;;;;;;;;1037408;28;19916;-84
2021/07/18 02:28:32;;;;;;;;;;;;;;;;;;1037519;28;19992;-83
2021/07/18 02:29:03;;;;;;;;;;;;;;;;;;1033140;28;19996;-83
2021/07/18 02:29:33;;;;;;;;;;;;;;;;;;1033218;28;19906;-82
2021/07/18 02:30:03;;;;;;;;;;;;;;;;;;1033403;28;19906;-82
2021/07/18 02:30:33;;;;;;;;;;;;;;;;;;1029208;28;19906;-84
2021/07/18 02:31:05;;;;;;;;;;;;;;;;;;1033553;28;20004;-82
2021/07/18 02:31:35;;;;;;;;;;;;;;;;;;1029391;28;20368;-82
2021/07/18 02:32:05;;;;;;;;;;;;;;;;;;1029342;28;19913;-84
2021/07/18 02:32:35;;;;;;;;;;;;;;;;;;1025472;28;19913;-82
2021/07/18 02:33:06;;;;;;;;;;;;;;;;;;1029638;28;19950;-83
2021/07/18 02:33:36;;;;;;;;;;;;;;;;;;1037607;28;19912;-83
2021/07/18 02:34:06;;;;;;;;;;;;;;;;;;1037424;28;19910;-84
2021/07/18 02:34:36;;;;;;;;;;;;;;;;;;1037536;28;19985;-84
2021/07/18 02:35:07;;;;;;;;;;;;;;;;;;1033626;28;19906;-85
2021/07/18 02:35:37;;;;;;;;;;;;;;;;;;1033436;28;19906;-82
2021/07/18 02:36:07;;;;;;;;;;;;;;;;;;1033457;28;19965;-83
2021/07/18 02:36:38;;;;;;;;;;;;;;;;;;1037623;28;19909;-82
2021/07/18 02:37:08;;;;;;;;;;;;;;;;;;1037380;28;19908;-84
2021/07/18 02:37:38;;;;;;;;;;;;;;;;;;1041861;28;19905;-82
2021/07/18 02:38:08;;;;;;;;;;;;;;;;;;1037700;28;20275;-82
2021/07/18 02:38:39;;;;;;;;;;;;;;;;;;1037978;28;19906;-84
2021/07/18 02:39:09;;;;;;;;;;;;;;;;;;1033584;28;19906;-84
2021/07/18 02:39:39;;;;;;;;;;;;;;;;;;1038110;28;20411;-83
2021/07/18 02:40:09;;;;;;;;;;;;;;;;;;1041784;28;19906;-83
2021/07/18 02:40:40;;;;;;;;;;;;;;;;;;1037978;28;19961;-82
2021/07/18 02:41:11;;;;;;;;;;;;;;;;;;1033687;28;19918;-82
2021/07/18 02:41:42;;;;;;;;;;;;;;;;;;1033776;28;19909;-82
2021/07/18 02:42:13;;;;;;;;;;;;;;;;;;1029420;28;20013;-82
2021/07/18 02:42:43;;;;;;;;;;;;;;;;;;1033831;28;19918;-83
2021/07/18 02:43:13;;;;;;;;;;;;;;;;;;1034129;28;20000;-81
2021/07/18 02:43:44;;;;;;;;;;;;;;;;;;1029740;28;19964;-84
2021/07/18 02:44:14;;;;;;;;;;;;;;;;;;1029987;28;19921;-81
2021/07/18 02:44:45;;;;;;;;;;;;;;;;;;1029996;28;19965;-82
2021/07/18 02:45:15;;;;;;;;;;;;;;;;;;1033701;28;19913;-83
2021/07/18 02:45:45;;;;;;;;;;;;;;;;;;1035028;28;20005;-81
2021/07/18 02:46:15;;;;;;;;;;;;;;;;;;1037400;28;19910;-82
2021/07/18 02:46:46;;;;;;;;;;;;;;;;;;1037790;28;19897;-84
2021/07/18 02:47:16;;;;;;;;;;;;;;;;;;1037707;28;19909;-82
2021/07/18 02:47:47;;;;;;;;;;;;;;;;;;1033423;28;19961;-84
2021/07/18 02:48:18;;;;;;;;;;;;;;;;;;1037313;28;19918;-83
2021/07/18 02:48:48;;;;;;;;;;;;;;;;;;1035190;28;20390;-83
2021/07/18 02:49:18;;;;;;;;;;;;;;;;;;1038435;28;19909;-85
2021/07/18 02:49:48;;;;;;;;;;;;;;;;;;1042128;28;19909;-83
2021/07/18 02:50:19;;;;;;;;;;;;;;;;;;1042024;28;19953;-83
2021/07/18 02:50:49;;;;;;;;;;;;;;;;;;1037479;28;19909;-83
2021/07/18 02:51:19;;;;;;;;;;;;;;;;;;1037967;28;19916;-83
2021/07/18 02:51:50;;;;;;;;;;;;;;;;;;1037905;28;20339;-83
2021/07/18 02:52:20;;;;;;;;;;;;;;;;;;1038264;28;19909;-83
2021/07/18 02:52:50;;;;;;;;;;;;;;;;;;1033985;28;20320;-84
2021/07/18 02:53:20;;;;;;;;;;;;;;;;;;1030231;28;19984;-82
2021/07/18 02:53:51;;;;;;;;;;;;;;;;;;1029987;28;19910;-82
2021/07/18 02:54:21;;;;;;;;;;;;;;;;;;1034246;28;20097;-82
2021/07/18 02:54:54;;;;;;;;;;;;;;;;;;1025810;28;19922;-84
2021/07/18 02:55:24;;;;;;;;;;;;;;;;;;1030235;28;19938;-83
2021/07/18 02:55:55;;;;;;;;;;;;;;;;;;1034281;28;19909;-82
2021/07/18 02:56:25;;;;;;;;;;;;;;;;;;1034472;28;19961;-83
2021/07/18 02:56:55;;;;;;;;;;;;;;;;;;1038428;28;19917;-84
2021/07/18 02:57:25;;;;;;;;;;;;;;;;;;1030078;28;19914;-82
2021/07/18 02:57:56;;;;;;;;;;;;;;;;;;1030065;28;20471;-82
2021/07/18 02:58:26;;;;;;;;;;;;;;;;;;1038994;28;19977;-84
2021/07/18 02:58:56;;;;;;;;;;;;;;;;;;1034747;28;20002;-84
2021/07/18 02:59:26;;;;;;;;;;;;;;;;;;1039254;28;19910;-84
2021/07/18 02:59:57;;;;;;;;;;;;;;;;;;1034532;28;19914;-84
2021/07/18 03:00:27;;;;;;;;;;;;;;;;;;1035189;28;19929;-82
2021/07/18 03:00:57;;;;;;;;;;;;;;;;;;1035134;28;19905;-83
2021/07/18 03:01:28;;;;;;;;;;;;;;;;;;1034122;28;19980;-85
2021/07/18 03:01:59;;;;;;;;;;;;;;;;;;1037738;28;19979;-84
2021/07/18 03:02:30;;;;;;;;;;;;;;;;;;1034152;28;19907;-83
2021/07/18 03:03:00;;;;;;;;;;;;;;;;;;1039477;28;19985;-81
2021/07/18 03:03:30;;;;;;;;;;;;;;;;;;1039294;28;19906;-80
2021/07/18 03:04:01;;;;;;;;;;;;;;;;;;1034179;28;19960;-81
2021/07/18 03:04:31;;;;;;;;;;;;;;;;;;1034307;28;19906;-80
2021/07/18 03:05:02;;;;;;;;;;;;;;;;;;1030603;28;19902;-81
2021/07/18 03:05:32;;;;;;;;;;;;;;;;;;1032453;28;20398;-81
2021/07/18 03:06:02;;;;;;;;;;;;;;;;;;1036061;28;19906;-83
2021/07/18 03:06:33;;;;;;;;;;;;;;;;;;1032337;28;20004;-82
2021/07/18 03:07:03;;;;;;;;;;;;;;;;;;1032338;28;19958;-83
2021/07/18 03:07:33;;;;;;;;;;;;;;;;;;1031522;28;19985;-83
2021/07/18 03:08:04;;;;;;;;;;;;;;;;;;1039973;28;19906;-83
2021/07/18 03:08:34;;;;;;;;;;;;;;;;;;1035641;28;19978;-81
2021/07/18 03:09:04;;;;;;;;;;;;;;;;;;1034796;28;19913;-81
2021/07/18 03:09:34;;;;;;;;;;;;;;;;;;1034545;28;19970;-82
2021/07/18 03:10:05;;;;;;;;;;;;;;;;;;1031258;28;19906;-83
2021/07/18 03:10:35;;;;;;;;;;;;;;;;;;1032595;28;19971;-82
2021/07/18 03:11:05;;;;;;;;;;;;;;;;;;1034047;28;20378;-81
2021/07/18 03:11:35;;;;;;;;;;;;;;;;;;1034299;28;20001;-81
2021/07/18 03:12:06;;;;;;;;;;;;;;;;;;1035634;28;19953;-84
2021/07/18 03:12:36;;;;;;;;;;;;;;;;;;1034103;28;20450;-81
2021/07/18 03:13:06;;;;;;;;;;;;;;;;;;1032795;28;19992;-81
2021/07/18 03:13:37;;;;;;;;;;;;;;;;;;1037590;28;20433;-82
2021/07/18 03:14:07;;;;;;;;;;;;;;;;;;1038601;28;19902;-83
2021/07/18 03:14:37;;;;;;;;;;;;;;;;;;1034137;28;19956;-84
2021/07/18 03:15:08;;;;;;;;;;;;;;;;;;1034633;28;20328;-85
2021/07/18 03:15:38;;;;;;;;;;;;;;;;;;1037733;28;19948;-84
2021/07/18 03:16:08;;;;;;;;;;;;;;;;;;1039363;28;19914;-84
2021/07/18 03:16:39;;;;;;;;;;;;;;;;;;1038356;28;19913;-83
2021/07/18 03:17:10;;;;;;;;;;;;;;;;;;1035118;28;19908;-81
2021/07/18 03:17:40;;;;;;;;;;;;;;;;;;1034359;28;19910;-83
2021/07/18 03:18:10;;;;;;;;;;;;;;;;;;1027370;28;20001;-82
2021/07/18 03:18:40;;;;;;;;;;;;;;;;;;1033521;28;19902;-81
2021/07/18 03:19:11;;;;;;;;;;;;;;;;;;1035133;28;19914;-81
2021/07/18 03:19:41;;;;;;;;;;;;;;;;;;1039672;28;20026;-81
2021/07/18 03:20:11;;;;;;;;;;;;;;;;;;1038824;28;19906;-81
2021/07/18 03:20:42;;;;;;;;;;;;;;;;;;1039828;28;19926;-81
2021/07/18 03:21:12;;;;;;;;;;;;;;;;;;1043438;28;19905;-81
2021/07/18 03:21:42;;;;;;;;;;;;;;;;;;1040363;28;19905;-81
2021/07/18 03:22:12;;;;;;;;;;;;;;;;;;1032602;28;19906;-81
2021/07/18 03:22:43;;;;;;;;;;;;;;;;;;1026407;28;20343;-81
2021/07/18 03:23:14;;;;;;;;;;;;;;;;;;1030804;28;19910;-81
2021/07/18 03:23:46;;;;;;;;;;;;;;;;;;1026860;29;20001;-81
2021/07/18 03:24:17;;;;;;;;;;;;;;;;;;1032048;28;19961;-81
2021/07/18 03:24:49;;;;;;;;;;;;;;;;;;1035467;28;19914;-81
2021/07/18 03:25:20;;;;;;;;;;;;;;;;;;1031864;28;20001;-81
2021/07/18 03:25:51;;;;;;;;;;;;;;;;;;1035627;28;19910;-81
2021/07/18 03:26:22;;;;;;;;;;;;;;;;;;1036824;28;19937;-81
2021/07/18 03:26:52;;;;;;;;;;;;;;;;;;1033192;28;20000;-81
2021/07/18 03:27:22;;;;;;;;;;;;;;;;;;1033364;28;19944;-82